Time;durP1;ratioP1;P1;durP2;ratioP2;P2;SDS_P1;SDS_P2;PMS_P1;PMS_P2;Temp;Humidity;BMP_temperature;BMP_pressure;BME280_temperature;BME280_humidity;BME280_pressure;Samples;Min_cycle;Max_cycle;Signal;HPM_P1;HPM_P2
2023/04/30 00:01:05;;;;;;;;;;;;;;;;;;;;;
2023/04/30 00:06:36;;;;;;;11.00;4.40;;;9.30;99.90;;;;;;5065054;28;20459;-77
2023/04/30 00:09:48;;;;;;;4.33;3.73;;;9.20;99.90;;;;;;5067168;28;20463;-75
2023/04/30 00:12:15;;;;;;;7.90;5.60;;;9.20;99.90;;;;;;4984883;28;20905;-77
2023/04/30 00:14:55;;;;;;;6.33;3.40;;;9.20;99.90;;;;;;5044570;28;20583;-77
2023/04/30 00:17:40;;;;;;;6.83;3.70;;;9.30;99.90;;;;;;5060278;28;20494;-76
2023/04/30 00:23:44;;;;;;;;;;;;;;;;;;;;;
2023/04/30 00:47:05;;;;;;;8.17;3.70;;;8.90;99.90;;;;;;5316370;22;20476;-76
2023/04/30 00:49:45;;;;;;;7.20;5.03;;;8.90;99.90;;;;;;5053506;28;20987;-76
2023/04/30 00:52:23;;;;;;;7.47;4.33;;;8.80;99.90;;;;;;5038515;28;20884;-75
2023/04/30 00:55:15;;;;;;;4.97;4.40;;;8.80;99.90;;;;;;5047639;28;20494;-75
2023/04/30 00:57:42;;;;;;;5.37;3.40;;;8.60;99.90;;;;;;5047002;28;20472;-75
2023/04/30 01:00:27;;;;;;;9.40;4.10;;;8.20;99.90;;;;;;5041839;28;20430;-76
2023/04/30 01:03:06;;;;;;;6.30;3.50;;;8.10;99.90;;;;;;5038626;28;20459;-76
2023/04/30 01:06:02;;;;;;;4.80;4.03;;;8.20;99.90;;;;;;5047259;28;20499;-75
2023/04/30 01:09:10;;;;;;;5.73;3.47;;;8.20;99.90;;;;;;4995462;28;20556;-75
2023/04/30 01:19:25;;;;;;;5.53;4.10;;;8.40;99.90;;;;;;4882447;28;20507;-75
2023/04/30 01:21:56;;;;;;;6.53;4.03;;;8.40;99.90;;;;;;4971834;28;20501;-75
2023/04/30 01:24:56;;;;;;;6.50;4.43;;;8.30;99.90;;;;;;5025160;28;20486;-75
2023/04/30 01:27:43;;;;;;;11.23;3.80;;;8.30;99.90;;;;;;4964195;28;20473;-75
2023/04/30 01:31:00;;;;;;;7.67;5.93;;;8.40;99.90;;;;;;5044894;28;20625;-74
2023/04/30 01:34:26;;;;;;;6.27;4.27;;;8.30;99.90;;;;;;5002876;28;20496;-76
2023/04/30 01:41:08;;;;;;;11.73;4.20;;;8.30;99.90;;;;;;4964583;28;20441;-73
2023/04/30 01:43:47;;;;;;;4.30;3.30;;;8.10;99.90;;;;;;4981480;28;20459;-74
2023/04/30 01:46:27;;;;;;;5.07;3.13;;;8.00;99.90;;;;;;5012720;28;20439;-75
2023/04/30 01:49:03;;;;;;;5.80;3.90;;;7.90;99.90;;;;;;4994130;28;20450;-77
2023/04/30 01:51:48;;;;;;;17.13;4.00;;;7.90;99.90;;;;;;5004642;28;20536;-76
2023/04/30 01:54:24;;;;;;;5.67;3.53;;;8.00;99.90;;;;;;4993955;28;20600;-76
2023/04/30 02:00:39;;;;;;;8.40;4.30;;;7.90;99.90;;;;;;4923503;28;20434;-75
2023/04/30 02:03:09;;;;;;;6.60;3.97;;;7.90;99.90;;;;;;4987550;28;20469;-76
2023/04/30 02:05:37;;;;;;;5.20;3.20;;;7.90;99.90;;;;;;5002101;28;21026;-74
2023/04/30 02:08:05;;;;;;;8.47;3.70;;;7.70;99.90;;;;;;4999848;28;20508;-74
2023/04/30 02:10:33;;;;;;;5.30;4.30;;;7.60;99.90;;;;;;5029033;28;20560;-75
2023/04/30 02:20:34;;;;;;;;;;;;;;;;;;;;;
2023/04/30 02:29:32;;;;;;;5.33;4.83;;;7.50;99.90;;;;;;5032563;28;20942;-76
2023/04/30 02:32:41;;;;;;;5.80;4.33;;;7.50;99.90;;;;;;5051257;28;20442;-75
2023/04/30 02:35:17;;;;;;;4.43;3.50;;;7.40;99.90;;;;;;5049105;28;20461;-75
2023/04/30 02:37:46;;;;;;;8.40;6.13;;;7.50;99.90;;;;;;5062658;28;20453;-73
2023/04/30 02:40:58;;;;;;;6.90;4.20;;;7.40;99.90;;;;;;5047400;28;20525;-76
2023/04/30 02:44:36;;;;;;;6.07;3.77;;;7.30;99.90;;;;;;5042843;28;20485;-75
2023/04/30 02:51:27;;;;;;;7.40;5.50;;;7.40;99.90;;;;;;5041708;28;20459;-73
2023/04/30 02:57:24;;;;;;;7.40;3.60;;;7.30;99.90;;;;;;5041618;28;20504;-76
2023/04/30 02:59:57;;;;;;;5.90;3.60;;;7.30;99.90;;;;;;5043942;28;20434;-76
2023/04/30 03:02:32;;;;;;;7.47;5.00;;;7.20;99.90;;;;;;5046942;28;20463;-74
2023/04/30 03:04:59;;;;;;;8.27;4.23;;;7.20;99.90;;;;;;5046816;28;20608;-74
2023/04/30 03:07:32;;;;;;;6.67;3.53;;;7.20;99.90;;;;;;5048007;28;20529;-76
2023/04/30 03:10:17;;;;;;;5.67;4.37;;;7.20;99.90;;;;;;5041621;28;20969;-76
2023/04/30 03:12:44;;;;;;;8.40;5.50;;;7.20;99.90;;;;;;5039828;28;20478;-76
2023/04/30 03:15:28;;;;;;;6.83;5.17;;;7.20;99.90;;;;;;5048005;28;20434;-75
2023/04/30 03:21:15;;;;;;;7.00;3.13;;;7.10;99.90;;;;;;4997377;28;20443;-77
2023/04/30 03:23:43;;;;;;;5.17;3.20;;;7.10;99.90;;;;;;5014748;28;20505;-77
2023/04/30 03:26:12;;;;;;;7.27;3.83;;;7.00;99.90;;;;;;5055596;28;20514;-75
2023/04/30 03:28:42;;;;;;;5.93;3.63;;;7.00;99.90;;;;;;5048369;28;20428;-75
2023/04/30 03:31:14;;;;;;;6.93;3.97;;;7.00;99.90;;;;;;5043803;28;20839;-75
2023/04/30 03:33:44;;;;;;;5.40;4.30;;;7.00;99.90;;;;;;5040103;28;20461;-76
2023/04/30 03:36:11;;;;;;;8.77;3.93;;;7.00;99.90;;;;;;5040571;28;20442;-75
2023/04/30 03:38:49;;;;;;;7.17;3.33;;;7.00;99.90;;;;;;5042668;28;20490;-75
2023/04/30 03:42:12;;;;;;;6.40;4.33;;;6.90;99.90;;;;;;5042090;28;20780;-75
2023/04/30 03:52:12;;;;;;;6.37;4.43;;;6.90;99.90;;;;;;5017562;28;20469;-76
2023/04/30 03:57:23;;;;;;;7.03;4.83;;;7.00;99.90;;;;;;5033880;28;20467;-76
2023/04/30 03:59:59;;;;;;;5.83;3.83;;;7.00;99.90;;;;;;5040071;28;20562;-76
2023/04/30 04:02:36;;;;;;;10.33;4.73;;;7.00;99.90;;;;;;5041879;28;20830;-74
2023/04/30 04:05:08;;;;;;;4.67;3.60;;;6.90;99.90;;;;;;5042491;28;20444;-76
2023/04/30 04:08:17;;;;;;;5.07;4.53;;;6.80;99.90;;;;;;5018453;28;20434;-76
2023/04/30 04:10:57;;;;;;;;;;;;;;;;;;;;;
2023/04/30 04:13:35;;;;;;;5.33;4.40;;;6.90;99.90;;;;;;5050356;28;20865;-75
2023/04/30 04:16:03;;;;;;;8.97;4.10;;;6.80;99.90;;;;;;5041288;28;20430;-75
2023/04/30 04:18:33;;;;;;;7.67;5.37;;;6.80;99.90;;;;;;5026608;28;20845;-76
2023/04/30 04:24:41;;;;;;;16.40;4.80;;;6.70;99.90;;;;;;5036796;28;20480;-75
2023/04/30 04:27:45;;;;;;;7.60;5.70;;;6.70;99.90;;;;;;5042406;28;20426;-76
2023/04/30 04:40:15;;;;;;;6.20;3.20;;;6.90;99.90;;;;;;4957123;28;20493;-74
2023/04/30 04:42:42;;;;;;;7.27;4.00;;;6.90;99.90;;;;;;4959995;28;21054;-76
2023/04/30 04:48:16;;;;;;;7.13;4.47;;;7.00;99.90;;;;;;5035790;28;20506;-75
2023/04/30 04:51:21;;;;;;;7.17;5.07;;;7.20;99.90;;;;;;5056168;28;20450;-76
2023/04/30 04:53:50;;;;;;;9.73;5.70;;;7.50;99.90;;;;;;5014629;28;20787;-77
2023/04/30 04:56:17;;;;;;;10.00;4.63;;;7.70;99.90;;;;;;5044860;28;20440;-76
2023/04/30 04:58:45;;;;;;;9.90;4.77;;;7.70;99.90;;;;;;5047281;28;20870;-76
2023/04/30 05:01:12;;;;;;;7.50;4.80;;;7.90;99.90;;;;;;5022386;28;20928;-75
2023/04/30 05:03:40;;;;;;;3.13;2.40;;;8.10;99.90;;;;;;5048260;28;20458;-74
2023/04/30 05:06:07;;;;;;;6.07;5.00;;;8.30;99.90;;;;;;5059608;28;20434;-76
2023/04/30 05:18:43;;;;;;;9.97;3.80;;;9.60;99.90;;;;;;5022966;28;20627;-76
2023/04/30 05:25:23;;;;;;;;;;;;;;;;;;;;;
2023/04/30 05:44:49;;;;;;;5.93;4.67;;;11.50;99.90;;;;;;4805042;29;20488;-77
2023/04/30 05:47:51;;;;;;;6.90;3.80;;;11.10;99.90;;;;;;4837507;29;20469;-75
2023/04/30 05:51:01;;;;;;;4.57;4.17;;;10.60;99.90;;;;;;4829403;29;20552;-76
2023/04/30 05:56:49;;;;;;;7.80;4.30;;;11.20;99.90;;;;;;4922917;29;20497;-75
2023/04/30 06:03:26;;;;;;;7.03;3.70;;;11.10;99.90;;;;;;5018868;28;20463;-77
2023/04/30 06:09:50;;;;;;;11.70;4.83;;;11.40;99.90;;;;;;5027170;28;20441;-76
2023/04/30 06:12:38;;;;;;;5.67;4.60;;;11.40;99.90;;;;;;4922845;29;20465;-75
2023/04/30 06:22:09;;;;;;;5.53;3.20;;;11.90;99.90;;;;;;5026788;28;20461;-77
2023/04/30 06:24:42;;;;;;;4.27;3.30;;;12.10;99.90;;;;;;4996955;28;20820;-75
2023/04/30 06:30:33;;;;;;;5.57;3.10;;;12.50;99.90;;;;;;5021327;28;20460;-76
2023/04/30 06:33:44;;;;;;;3.10;2.80;;;12.80;99.90;;;;;;5017692;28;20545;-76
2023/04/30 06:36:34;;;;;;;5.00;3.67;;;13.00;99.90;;;;;;5013793;28;20484;-76
2023/04/30 06:39:19;;;;;;;6.00;3.20;;;13.30;99.90;;;;;;5000633;28;21838;-77
2023/04/30 06:41:47;;;;;;;4.90;2.60;;;13.40;99.90;;;;;;5031959;28;20465;-77
2023/04/30 06:44:41;;;;;;;6.63;3.13;;;13.50;99.90;;;;;;5030282;28;20488;-77
2023/04/30 06:47:58;;;;;;;8.17;3.90;;;13.60;99.90;;;;;;5034637;28;20499;-73
2023/04/30 06:50:44;;;;;;;8.25;4.85;;;13.70;99.90;;;;;;4867721;29;20585;-75
2023/04/30 06:56:29;;;;;;;6.37;2.90;;;14.30;99.90;;;;;;5017636;28;20488;-77
2023/04/30 06:59:36;;;;;;;8.23;3.80;;;14.70;99.90;;;;;;5032443;28;20473;-76
2023/04/30 07:04:48;;;;;;;5.20;3.07;;;15.10;99.90;;;;;;5080166;22;20482;-75
2023/04/30 07:07:40;;;;;;;7.23;4.10;;;14.40;99.90;;;;;;5051980;28;20812;-76
2023/04/30 07:16:57;;;;;;;6.17;4.03;;;14.90;99.90;;;;;;5033966;28;20458;-76
2023/04/30 07:19:49;;;;;;;;;;;;;;;;;;;;;
2023/04/30 07:29:01;;;;;;;5.17;4.67;;;15.90;99.90;;;;;;4850846;29;20537;-77
2023/04/30 07:31:28;;;;;;;8.93;3.90;;;16.40;99.90;;;;;;4908502;29;20873;-77
2023/04/30 07:44:14;;;;;;;7.07;4.50;;;17.50;99.90;;;;;;4908449;29;20528;-75
2023/04/30 07:53:06;;;;;;;4.47;3.77;;;17.70;99.90;;;;;;4921264;28;20506;-74
2023/04/30 07:59:23;;;;;;;4.70;3.40;;;18.90;99.90;;;;;;4886244;29;20574;-78
2023/04/30 08:01:50;;;;;;;6.50;4.37;;;18.80;99.90;;;;;;5011039;28;20467;-77
2023/04/30 08:08:05;;;;;;;6.37;4.87;;;18.60;99.90;;;;;;4928103;29;20467;-75
2023/04/30 08:11:01;;;;;;;5.57;4.73;;;19.00;99.90;;;;;;4933199;29;20557;-76
2023/04/30 08:13:27;;;;;;;3.30;2.90;;;19.40;99.90;;;;;;4929220;29;20492;-75
2023/04/30 08:16:59;;;;;;;11.33;5.77;;;19.50;99.90;;;;;;4932754;29;20575;-76
2023/04/30 08:20:10;;;;;;;4.53;3.23;;;18.90;99.90;;;;;;4921347;29;20515;-77
2023/04/30 08:25:35;;;;;;;6.20;4.07;;;19.60;99.90;;;;;;4941047;29;20488;-77
2023/04/30 08:32:10;;;;;;;6.53;4.30;;;19.60;99.90;;;;;;4836483;29;20472;-76
2023/04/30 08:35:01;;;;;;;5.20;4.10;;;19.90;99.90;;;;;;4892574;29;20462;-76
2023/04/30 08:48:14;;;;;;;5.70;4.40;;;21.60;99.90;;;;;;4767132;30;20710;-77
2023/04/30 08:51:46;;;;;;;5.33;4.53;;;21.50;99.90;;;;;;4779351;30;21065;-78
2023/04/30 08:58:29;;;;;;;4.63;3.90;;;21.40;99.90;;;;;;4804331;29;20492;-77
2023/04/30 09:01:01;;;;;;;4.73;3.80;;;22.20;99.90;;;;;;4802505;29;20503;-76
2023/04/30 09:03:34;;;;;;;7.30;6.17;;;21.50;99.90;;;;;;4798747;29;20506;-78
2023/04/30 09:08:45;;;;;;;11.07;5.90;;;21.50;99.90;;;;;;4817639;29;20481;-76
2023/04/30 09:11:26;;;;;;;6.47;4.80;;;22.30;99.90;;;;;;4828432;29;20495;-76
2023/04/30 09:14:47;;;;;;;4.70;4.30;;;22.60;98.30;;;;;;4851129;29;20492;-76
2023/04/30 09:17:22;;;;;;;5.87;5.20;;;22.60;99.50;;;;;;4915623;29;20452;-76
2023/04/30 09:19:49;;;;;;;4.23;3.70;;;22.80;97.30;;;;;;4877323;29;20485;-76
2023/04/30 09:22:22;;;;;;;6.03;4.33;;;22.60;96.90;;;;;;4911755;29;20473;-76
2023/04/30 09:25:21;;;;;;;4.40;3.93;;;22.40;97.00;;;;;;4962116;28;20466;-76
2023/04/30 09:27:48;;;;;;;6.37;4.43;;;22.80;95.30;;;;;;4987757;28;20464;-77
2023/04/30 09:30:32;;;;;;;5.97;4.50;;;22.60;97.00;;;;;;4985957;28;20528;-77
2023/04/30 09:33:45;;;;;;;6.33;4.23;;;22.90;96.80;;;;;;4986139;28;20486;-77
2023/04/30 09:36:17;;;;;;;3.43;3.10;;;23.30;94.70;;;;;;5050321;28;20462;-75
2023/04/30 09:38:55;;;;;;;4.63;3.90;;;23.00;93.70;;;;;;5010318;28;20928;-76
2023/04/30 09:41:31;;;;;;;4.33;3.20;;;22.70;94.90;;;;;;5053891;28;20510;-75
2023/04/30 09:44:09;;;;;;;4.10;3.20;;;23.10;93.20;;;;;;5042958;28;20506;-77
2023/04/30 09:49:59;;;;;;;3.33;2.73;;;23.60;93.70;;;;;;5049372;28;20534;-76
2023/04/30 09:53:07;;;;;;;4.83;3.10;;;24.40;91.60;;;;;;5047730;28;20914;-75
2023/04/30 09:55:59;;;;;;;2.97;2.30;;;24.30;88.60;;;;;;5046788;28;20459;-75
2023/04/30 09:58:50;;;;;;;6.27;3.40;;;24.10;90.20;;;;;;5047194;28;20449;-77
2023/04/30 10:01:21;;;;;;;4.43;4.00;;;24.60;89.50;;;;;;5040672;28;20531;-75
2023/04/30 10:03:58;;;;;;;4.50;3.97;;;24.50;89.90;;;;;;5049882;28;20490;-76
2023/04/30 10:06:35;;;;;;;2.67;2.47;;;24.90;90.00;;;;;;5028278;28;20458;-77
2023/04/30 10:09:14;;;;;;;5.50;4.40;;;24.60;86.20;;;;;;5045096;28;20451;-78
2023/04/30 10:19:04;;;;;;;3.77;2.77;;;23.90;90.60;;;;;;5036336;28;21119;-77
2023/04/30 10:21:58;;;;;;;5.43;3.93;;;24.20;90.20;;;;;;5052810;28;21039;-76
2023/04/30 10:24:45;;;;;;;3.53;3.23;;;24.90;90.80;;;;;;5045909;28;20819;-76
2023/04/30 10:33:53;;;;;;;6.10;3.90;;;24.70;85.10;;;;;;4977079;28;20921;-77
2023/04/30 10:36:59;;;;;;;4.43;3.53;;;24.10;90.30;;;;;;4984019;28;20465;-74
2023/04/30 10:39:53;;;;;;;5.03;3.67;;;24.40;89.80;;;;;;4983079;28;20727;-77
2023/04/30 10:42:29;;;;;;;4.23;3.30;;;25.10;86.80;;;;;;4913761;29;20513;-76
2023/04/30 10:51:16;;;;;;;3.83;2.60;;;26.30;87.40;;;;;;4983532;28;20482;-78
2023/04/30 11:22:16;;;;;;;4.57;3.67;;;26.70;78.90;;;;;;4945749;28;20576;-77
2023/04/30 11:26:00;;;;;;;;;;;;;;;;;;;;;
2023/04/30 11:32:32;;;;;;;4.10;2.90;;;25.40;79.50;;;;;;4827820;29;21054;-77
2023/04/30 11:35:02;;;;;;;3.37;2.87;;;25.90;81.00;;;;;;4994617;28;20483;-76
2023/04/30 11:44:22;;;;;;;7.90;3.33;;;27.00;78.00;;;;;;5020371;28;20459;-75
2023/04/30 11:46:49;;;;;;;3.53;2.53;;;27.50;78.80;;;;;;5046970;28;20447;-77
2023/04/30 11:49:28;;;;;;;9.43;3.80;;;27.40;75.20;;;;;;5025929;28;20464;-76
2023/04/30 11:53:02;;;;;;;;;;;;;;;;;;;;;
2023/04/30 11:55:56;;;;;;;4.33;2.80;;;27.70;74.30;;;;;;5044591;28;20454;-77
2023/04/30 11:58:55;;;;;;;2.90;2.60;;;28.30;70.30;;;;;;5017836;28;20463;-75
2023/04/30 12:08:27;;;;;;;4.03;3.00;;;26.30;78.50;;;;;;4961949;28;20980;-73
2023/04/30 12:21:31;;;;;;;6.27;3.30;;;26.70;73.70;;;;;;4848333;29;20523;-77
2023/04/30 12:24:29;;;;;;;3.50;3.20;;;26.50;74.30;;;;;;4869155;29;20517;-75
2023/04/30 12:44:30;;;;;;;4.00;3.10;;;25.00;75.30;;;;;;4857563;29;20476;-76
2023/04/30 12:54:33;;;;;;;4.87;3.00;;;25.50;73.20;;;;;;4829434;29;20500;-77
2023/04/30 12:57:51;;;;;;;;;;;;;;;;;;;;;
2023/04/30 13:01:01;;;;;;;;;;;;;;;;;;;;;
2023/04/30 13:10:52;;;;;;;3.40;2.53;;;24.80;78.90;;;;;;4924650;28;20462;-77
2023/04/30 13:13:56;;;;;;;2.73;2.50;;;25.60;73.50;;;;;;4968214;28;20511;-76
2023/04/30 13:16:57;;;;;;;5.00;2.50;;;23.60;74.50;;;;;;4963421;28;20451;-76
2023/04/30 13:19:36;;;;;;;4.50;3.07;;;23.40;79.10;;;;;;4960967;28;20503;-73
2023/04/30 13:36:02;;;;;;;3.83;1.60;;;24.90;75.90;;;;;;4967806;28;20542;-77
2023/04/30 13:45:16;;;;;;;4.60;3.33;;;25.30;71.30;;;;;;4892553;29;20465;-75
2023/04/30 13:47:55;;;;;;;2.50;2.30;;;22.70;76.50;;;;;;4895365;28;20490;-76
2023/04/30 13:50:44;;;;;;;3.80;2.80;;;22.60;78.30;;;;;;4964737;28;20557;-74
2023/04/30 13:53:29;;;;;;;3.00;2.30;;;23.00;78.50;;;;;;4964098;28;20533;-75
2023/04/30 13:56:04;;;;;;;2.83;2.20;;;23.90;75.70;;;;;;4964210;28;20486;-75
2023/04/30 13:58:41;;;;;;;4.40;2.33;;;24.30;74.10;;;;;;4965609;28;20447;-76
2023/04/30 14:01:15;;;;;;;2.80;2.60;;;24.80;75.10;;;;;;4965819;28;20479;-75
2023/04/30 14:03:53;;;;;;;2.60;2.40;;;25.90;69.20;;;;;;4968086;28;20577;-75
2023/04/30 14:06:21;;;;;;;2.33;1.60;;;24.60;70.40;;;;;;4969455;28;20470;-76
2023/04/30 14:08:48;;;;;;;5.17;2.97;;;23.30;73.10;;;;;;4947893;28;20994;-76
2023/04/30 14:11:15;;;;;;;5.23;2.60;;;23.60;74.40;;;;;;4967356;28;20459;-76
2023/04/30 14:13:44;;;;;;;4.00;3.10;;;23.70;73.90;;;;;;4998909;28;20467;-77
2023/04/30 14:16:12;;;;;;;2.87;2.50;;;24.20;73.30;;;;;;5030001;28;20978;-77
2023/04/30 14:18:39;;;;;;;5.10;2.73;;;25.00;72.60;;;;;;5020727;28;20495;-76
2023/04/30 14:21:12;;;;;;;3.00;2.17;;;25.20;71.80;;;;;;5025141;28;20488;-75
2023/04/30 14:24:00;;;;;;;1.97;1.73;;;25.30;70.20;;;;;;5026275;28;20572;-74
2023/04/30 14:26:30;;;;;;;2.03;1.60;;;25.00;71.30;;;;;;5021384;28;20520;-77
2023/04/30 14:32:59;;;;;;;2.07;1.70;;;22.90;76.40;;;;;;4982719;28;20732;-77
2023/04/30 14:35:27;;;;;;;5.50;2.10;;;22.30;78.10;;;;;;5020121;28;20496;-76
2023/04/30 14:38:31;;;;;;;5.00;2.47;;;22.10;77.80;;;;;;5033318;28;20491;-74
2023/04/30 14:41:06;;;;;;;2.83;1.83;;;21.90;76.50;;;;;;4975697;28;20502;-76
2023/04/30 14:54:28;;;;;;;1.90;1.60;;;21.40;78.00;;;;;;4922843;28;20479;-74
2023/04/30 15:04:06;;;;;;;2.00;1.57;;;21.70;80.00;;;;;;4826311;29;20503;-76
2023/04/30 15:07:21;;;;;;;2.47;2.13;;;20.90;80.20;;;;;;4853297;29;20479;-77
2023/04/30 15:32:48;;;;;;;5.53;2.00;;;20.40;80.50;;;;;;6273740;22;20276;-93
2023/04/30 15:40:27;;;;;;;2.00;1.80;;;20.20;82.60;;;;;;6208660;22;20464;-91
2023/04/30 15:42:55;;;;;;;3.33;2.43;;;20.00;82.60;;;;;;6185832;23;20426;-93
2023/04/30 15:45:28;;;;;;;3.00;1.90;;;19.90;84.40;;;;;;6184468;23;20405;-92
2023/04/30 15:48:12;;;;;;;;;;;;;;;;;;;;;
2023/04/30 15:50:51;;;;;;;2.50;2.00;;;19.60;84.40;;;;;;6183409;23;20366;-91
2023/04/30 15:53:24;;;;;;;7.57;2.20;;;19.60;83.20;;;;;;6183866;23;20425;-92
2023/04/30 15:59:14;;;;;;;4.63;2.03;;;19.70;84.40;;;;;;6187275;23;20424;-93
2023/04/30 16:01:49;;;;;;;3.50;2.10;;;19.70;84.10;;;;;;6186110;23;20465;-93
2023/04/30 16:04:32;;;;;;;3.70;2.20;;;19.90;85.40;;;;;;6185625;23;20421;-92
2023/04/30 16:07:25;;;;;;;2.90;2.20;;;20.00;84.80;;;;;;6185997;23;20397;-92
2023/04/30 16:16:24;;;;;;;5.30;1.50;;;19.50;86.20;;;;;;6254203;23;20395;-74
2023/04/30 16:20:03;;;;;;;2.93;2.07;;;19.70;87.70;;;;;;6240598;23;20434;-75
2023/04/30 16:23:14;;;;;;;2.67;2.03;;;19.80;86.60;;;;;;6130712;23;20465;-77
2023/04/30 16:25:51;;;;;;;3.07;1.87;;;19.80;86.30;;;;;;6128366;23;20414;-75
2023/04/30 16:28:30;;;;;;;1.67;1.20;;;19.40;85.00;;;;;;6126784;23;20433;-75
2023/04/30 16:31:04;;;;;;;5.33;2.10;;;19.10;86.20;;;;;;6127166;23;20428;-76
2023/04/30 16:37:26;;;;;;;2.50;1.67;;;19.00;85.50;;;;;;6111716;23;20442;-77
2023/04/30 16:46:35;;;;;;;3.53;1.70;;;19.10;85.70;;;;;;6120477;23;20451;-75
2023/04/30 16:49:21;;;;;;;2.30;1.57;;;18.90;86.00;;;;;;6123838;23;20407;-74
2023/04/30 16:55:44;;;;;;;2.23;1.80;;;19.10;87.00;;;;;;6106137;23;20878;-74
2023/04/30 16:58:17;;;;;;;4.07;1.97;;;19.00;86.80;;;;;;6144498;23;20411;-76
2023/04/30 17:00:48;;;;;;;3.47;1.70;;;18.90;85.60;;;;;;6245520;23;20466;-77
2023/04/30 17:03:25;;;;;;;2.17;1.50;;;18.70;85.60;;;;;;6242207;23;20771;-76
2023/04/30 17:05:55;;;;;;;4.03;1.90;;;18.60;86.40;;;;;;6213423;23;20418;-76
2023/04/30 17:09:13;;;;;;;2.73;1.83;;;18.50;87.50;;;;;;6211172;23;20428;-76
2023/04/30 17:11:42;;;;;;;5.13;1.37;;;18.70;88.70;;;;;;6213746;23;20473;-75
2023/04/30 17:14:29;;;;;;;2.10;1.50;;;18.70;88.90;;;;;;6210102;23;20432;-75
2023/04/30 17:17:00;;;;;;;1.93;1.73;;;18.80;89.10;;;;;;6211131;23;20411;-77
2023/04/30 17:19:36;;;;;;;5.47;1.90;;;18.60;87.40;;;;;;6198106;23;20412;-76
2023/04/30 17:22:08;;;;;;;2.70;1.80;;;18.50;87.40;;;;;;6213466;23;20461;-75
2023/04/30 17:34:58;;;;;;;5.30;3.10;;;18.20;89.80;;;;;;6143575;23;20422;-76
2023/04/30 17:37:44;;;;;;;;;;;;;;;;;;;;;
2023/04/30 17:40:21;;;;;;;4.33;2.13;;;18.20;90.40;;;;;;6217025;23;20415;-76
2023/04/30 17:42:51;;;;;;;11.00;5.30;;;18.10;90.50;;;;;;6211728;23;20470;-76
2023/04/30 17:45:20;;;;;;;3.77;1.60;;;18.20;90.60;;;;;;6210637;23;20401;-76
2023/04/30 17:47:59;;;;;;;1.90;1.43;;;18.20;90.60;;;;;;6211572;23;20415;-75
2023/04/30 17:50:27;;;;;;;4.10;1.57;;;18.10;90.40;;;;;;6211769;23;20376;-75
2023/04/30 17:53:22;;;;;;;3.93;2.10;;;18.10;90.60;;;;;;6216995;23;20510;-75
2023/04/30 17:56:59;;;;;;;2.60;1.63;;;18.00;90.80;;;;;;6219953;23;20396;-75
2023/04/30 18:05:51;;;;;;;3.57;2.07;;;17.60;91.50;;;;;;6191415;23;20413;-76
2023/04/30 18:15:27;;;;;;;2.07;1.77;;;17.40;92.30;;;;;;6084441;23;20408;-75
2023/04/30 18:21:07;;;;;;;3.50;1.87;;;17.60;92.60;;;;;;6164658;23;20440;-72
2023/04/30 18:24:07;;;;;;;2.47;1.87;;;17.40;92.60;;;;;;6211150;23;20524;-75
2023/04/30 18:27:17;;;;;;;5.37;2.00;;;17.20;92.80;;;;;;6209895;23;20414;-76
2023/04/30 18:47:10;;;;;;;1.77;1.67;;;16.90;94.10;;;;;;6241863;23;20449;-74
2023/04/30 18:56:53;;;;;;;3.70;2.37;;;16.70;94.50;;;;;;6108764;23;20429;-76
2023/04/30 19:00:12;;;;;;;3.83;2.03;;;16.60;94.70;;;;;;6070504;23;20417;-72
2023/04/30 19:02:59;;;;;;;4.47;1.63;;;16.70;94.80;;;;;;6012118;23;20563;-76
2023/04/30 19:05:26;;;;;;;1.97;1.70;;;16.60;95.00;;;;;;6066608;23;20407;-74
2023/04/30 19:08:16;;;;;;;8.00;2.13;;;16.40;95.00;;;;;;6118225;23;20415;-76
2023/04/30 19:10:52;;;;;;;5.87;1.93;;;16.30;95.40;;;;;;6117324;23;20830;-77
2023/04/30 19:13:41;;;;;;;;;;;;;;;;;;;;;
2023/04/30 19:16:26;;;;;;;2.50;1.97;;;16.00;96.00;;;;;;6118501;23;20968;-75
2023/04/30 19:19:08;;;;;;;2.33;1.97;;;16.00;96.50;;;;;;6115262;23;20426;-77
2023/04/30 19:22:09;;;;;;;3.17;2.47;;;15.90;97.00;;;;;;6117140;23;20427;-75
2023/04/30 19:24:36;;;;;;;4.40;2.77;;;16.00;97.40;;;;;;6124016;23;20492;-75
2023/04/30 19:30:33;;;;;;;4.30;2.80;;;15.90;97.70;;;;;;6182306;23;20441;-77
2023/04/30 19:33:35;;;;;;;;;;;;;;;;;;;;;
2023/04/30 19:39:39;;;;;;;5.13;2.33;;;15.80;98.90;;;;;;6116598;23;20426;-75
2023/04/30 19:42:25;;;;;;;3.10;2.50;;;15.80;99.10;;;;;;6116575;23;20628;-77
2023/04/30 19:46:10;;;;;;;6.50;3.40;;;15.80;99.20;;;;;;6115611;23;20388;-74
2023/04/30 19:48:41;;;;;;;2.60;2.20;;;15.50;99.70;;;;;;6072909;23;20411;-76
2023/04/30 20:07:22;;;;;;;4.30;2.87;;;15.10;99.90;;;;;;6021930;23;20777;-75
2023/04/30 20:16:39;;;;;;;4.47;2.97;;;15.10;99.90;;;;;;6121335;23;20394;-77
2023/04/30 20:22:39;;;;;;;2.60;1.83;;;15.00;99.90;;;;;;6177555;23;20428;-75
2023/04/30 20:27:59;;;;;;;6.57;2.10;;;14.80;99.90;;;;;;6149621;23;21158;-73
2023/04/30 20:34:24;;;;;;;4.90;2.73;;;14.80;99.90;;;;;;6035570;23;20502;-76
2023/04/30 20:44:21;;;;;;;3.23;2.70;;;14.70;99.90;;;;;;5935132;24;20519;-76
2023/04/30 20:50:38;;;;;;;6.10;2.67;;;14.60;99.90;;;;;;5999891;23;20414;-75
2023/04/30 20:53:26;;;;;;;3.60;2.80;;;14.60;99.90;;;;;;5975488;23;20420;-78
2023/04/30 20:56:45;;;;;;;9.60;3.30;;;14.60;99.90;;;;;;6006361;23;20905;-76
2023/04/30 21:18:35;;;;;;;3.30;2.47;;;14.20;99.90;;;;;;6094919;23;20410;-77
2023/04/30 21:46:26;;;;;;;3.57;2.47;;;13.50;99.90;;;;;;6088314;23;20554;-77
2023/04/30 21:56:37;;;;;;;;;;;;;;;;;;;;;
2023/04/30 21:59:27;;;;;;;3.93;2.50;;;13.20;99.90;;;;;;6111194;23;20490;-75
2023/04/30 22:02:25;;;;;;;4.10;2.07;;;13.10;99.90;;;;;;6090637;23;20429;-73
2023/04/30 22:10:51;;;;;;;2.80;2.13;;;13.00;99.90;;;;;;6118818;23;20419;-75
2023/04/30 22:13:18;;;;;;;2.50;1.97;;;12.90;99.90;;;;;;6214995;23;20442;-76
2023/04/30 22:15:56;;;;;;;4.93;2.93;;;12.90;99.90;;;;;;6220660;23;20443;-76
2023/04/30 22:18:24;;;;;;;4.87;2.37;;;12.80;99.90;;;;;;6186298;23;20464;-76
2023/04/30 22:20:52;;;;;;;3.67;3.20;;;12.80;99.90;;;;;;6214335;23;20431;-76
2023/04/30 22:23:22;;;;;;;3.03;1.53;;;12.70;99.90;;;;;;6217031;23;20463;-76
2023/04/30 22:25:58;;;;;;;3.90;1.80;;;12.70;99.90;;;;;;6230210;23;20408;-75
2023/04/30 22:28:43;;;;;;;2.93;2.00;;;12.70;99.90;;;;;;6231210;23;20445;-76
2023/04/30 22:31:10;;;;;;;2.73;2.40;;;12.70;99.90;;;;;;6210992;23;20392;-76
2023/04/30 22:34:22;;;;;;;6.10;3.50;;;12.70;99.90;;;;;;6213809;23;20424;-76
2023/04/30 22:37:05;;;;;;;4.07;2.33;;;12.70;99.90;;;;;;6211280;23;20514;-74
2023/04/30 22:39:38;;;;;;;5.30;2.97;;;12.60;99.90;;;;;;6208790;23;20416;-75
2023/04/30 22:42:10;;;;;;;10.00;3.00;;;12.60;99.90;;;;;;6211943;23;20424;-75
2023/04/30 22:44:56;;;;;;;;;;;;;;;;;;;;;
2023/04/30 22:50:26;;;;;;;4.03;2.93;;;12.60;99.90;;;;;;6210443;23;20393;-75
2023/04/30 22:52:56;;;;;;;4.70;2.63;;;12.60;99.90;;;;;;6208360;23;20530;-75
2023/04/30 22:55:23;;;;;;;4.37;3.33;;;12.60;99.90;;;;;;6218158;23;20640;-75
2023/04/30 22:57:58;;;;;;;3.93;2.67;;;12.60;99.90;;;;;;6220262;23;20420;-75
2023/04/30 23:00:29;;;;;;;11.73;3.33;;;12.40;99.90;;;;;;6182328;23;20574;-76
2023/04/30 23:03:33;;;;;;;5.60;2.57;;;12.40;99.90;;;;;;6134259;23;20498;-76
2023/04/30 23:06:11;;;;;;;4.43;2.80;;;12.30;99.90;;;;;;6202016;23;20478;-76
2023/04/30 23:08:44;;;;;;;13.57;2.90;;;12.30;99.90;;;;;;6211131;23;20363;-75
2023/04/30 23:11:38;;;;;;;8.00;4.10;;;12.20;99.90;;;;;;6212147;23;20391;-76
2023/04/30 23:14:25;;;;;;;4.63;2.73;;;12.20;99.90;;;;;;6212301;23;20413;-75
2023/04/30 23:16:54;;;;;;;4.77;2.20;;;12.20;99.90;;;;;;6208281;23;20440;-76
2023/04/30 23:19:45;;;;;;;3.43;2.67;;;12.20;99.90;;;;;;6217857;23;20404;-74
2023/04/30 23:22:12;;;;;;;5.23;4.37;;;12.10;99.90;;;;;;6209669;23;21013;-76
2023/04/30 23:24:41;;;;;;;5.00;2.50;;;12.10;99.90;;;;;;6211495;23;20491;-75
2023/04/30 23:27:21;;;;;;;4.00;3.33;;;11.90;99.90;;;;;;6211718;23;20420;-74
2023/04/30 23:29:56;;;;;;;10.83;2.83;;;11.50;99.90;;;;;;6211811;23;20416;-77
2023/04/30 23:32:24;;;;;;;4.83;2.83;;;11.60;99.90;;;;;;6217479;23;20419;-75
2023/04/30 23:34:56;;;;;;;8.83;4.77;;;11.80;99.90;;;;;;6137564;23;20419;-77
2023/04/30 23:37:23;;;;;;;5.27;2.53;;;11.80;99.90;;;;;;6185434;23;20403;-75
2023/04/30 23:39:53;;;;;;;2.93;2.63;;;11.80;99.90;;;;;;6108501;23;20400;-74
2023/04/30 23:42:20;;;;;;;6.10;3.33;;;11.70;99.90;;;;;;6211828;23;20527;-76
2023/04/30 23:44:47;;;;;;;7.50;3.80;;;11.80;99.90;;;;;;6136161;23;20745;-75
2023/04/30 23:47:17;;;;;;;7.20;3.00;;;11.90;99.90;;;;;;6211519;23;20408;-76
2023/04/30 23:49:44;;;;;;;3.57;2.27;;;11.90;99.90;;;;;;6211724;23;20428;-76
2023/04/30 23:52:17;;;;;;;4.97;2.83;;;12.00;99.90;;;;;;6186444;23;20409;-76
2023/04/30 23:55:08;;;;;;;3.47;3.17;;;12.00;99.90;;;;;;6212682;23;20417;-75
2023/04/30 23:57:36;;;;;;;3.23;2.57;;;12.00;99.90;;;;;;6185284;23;20443;-76
